Time;durP1;ratioP1;P1;durP2;ratioP2;P2;SDS_P1;SDS_P2;PMS_P1;PMS_P2;Temp;Humidity;BMP_temperature;BMP_pressure;BME280_temperature;BME280_humidity;BME280_pressure;Samples;Min_cycle;Max_cycle;Signal;HPM_P1;HPM_P2
2021/03/27 00:00:19;;;;;;;0.88;0.50;;;;;12.80;101025.00;;;;5086964;28;20202;-78
2021/03/27 00:02:51;;;;;;;1.42;0.82;;;;;12.90;101016.00;;;;5090052;28;20198;-78
2021/03/27 00:05:22;;;;;;;0.70;0.60;;;;;12.90;101020.00;;;;5089517;28;20205;-78
2021/03/27 00:08:03;;;;;;;0.80;0.50;;;;;12.90;101019.00;;;;5077570;28;20230;-78
2021/03/27 00:10:34;;;;;;;0.50;0.50;;;;;12.90;101009.00;;;;5072245;28;20201;-78
2021/03/27 00:13:14;;;;;;;0.60;0.50;;;;;12.90;101017.00;;;;5085887;28;21339;-78
2021/03/27 00:15:48;;;;;;;1.02;0.68;;;;;12.90;101025.00;;;;5074148;28;20652;-78
2021/03/27 00:18:20;;;;;;;1.13;0.68;;;;;12.90;101029.00;;;;5072209;28;20185;-79
2021/03/27 00:20:54;;;;;;;0.73;0.40;;;;;12.90;101027.00;;;;5089250;28;20686;-78
2021/03/27 00:23:25;;;;;;;0.65;0.50;;;;;12.90;101026.00;;;;5090248;28;20198;-78
2021/03/27 00:25:54;;;;;;;0.52;0.30;;;;;12.90;101029.00;;;;5089516;28;20221;-79
2021/03/27 00:28:25;;;;;;;0.77;0.38;;;;;12.90;101020.00;;;;5073082;28;20199;-78
2021/03/27 00:30:56;;;;;;;0.57;0.40;;;;;12.90;101019.00;;;;5070122;28;20194;-78
2021/03/27 00:33:27;;;;;;;0.30;0.20;;;;;12.90;101016.00;;;;5089378;28;20749;-78
2021/03/27 00:36:02;;;;;;;0.50;0.32;;;;;12.80;101018.00;;;;5090049;28;20198;-78
2021/03/27 00:38:34;;;;;;;0.93;0.20;;;;;12.90;101023.00;;;;5082644;28;20202;-78
2021/03/27 00:41:01;;;;;;;0.68;0.32;;;;;12.90;101017.00;;;;5073058;28;20264;-79
2021/03/27 00:43:31;;;;;;;1.17;0.45;;;;;12.80;101023.00;;;;5070053;28;20285;-78
2021/03/27 00:46:01;;;;;;;1.52;0.50;;;;;12.90;101021.00;;;;5077909;28;20253;-78
2021/03/27 00:48:32;;;;;;;4.32;0.50;;;;;12.90;101020.00;;;;5073754;28;20198;-78
2021/03/27 00:51:03;;;;;;;1.85;0.75;;;;;12.90;101022.00;;;;5089826;28;20213;-78
2021/03/27 00:53:36;;;;;;;1.00;0.35;;;;;12.80;101023.00;;;;5079008;28;20198;-78
2021/03/27 00:56:10;;;;;;;0.80;0.30;;;;;12.90;101029.00;;;;5088191;28;20206;-78
2021/03/27 00:58:43;;;;;;;2.08;0.35;;;;;12.80;101027.00;;;;5089914;28;20222;-78
2021/03/27 01:01:12;;;;;;;0.70;0.50;;;;;12.80;101021.00;;;;5088719;28;20211;-78
2021/03/27 01:03:41;;;;;;;0.70;0.30;;;;;12.80;101025.00;;;;5089042;28;20205;-78
2021/03/27 01:06:13;;;;;;;0.77;0.40;;;;;12.80;101018.00;;;;5088531;28;20218;-78
2021/03/27 01:08:43;;;;;;;1.83;0.70;;;;;12.80;101021.00;;;;5069103;28;20214;-78
2021/03/27 01:11:17;;;;;;;2.00;0.80;;;;;12.80;101030.00;;;;5082454;28;20227;-78
2021/03/27 01:13:47;;;;;;;1.40;0.88;;;;;12.80;101015.00;;;;5088053;28;20912;-78
2021/03/27 01:16:18;;;;;;;3.22;1.05;;;;;12.80;101024.00;;;;5080819;28;20199;-78
2021/03/27 01:18:48;;;;;;;3.28;1.30;;;;;12.80;101007.00;;;;5081646;28;20198;-78
2021/03/27 01:21:19;;;;;;;1.75;1.17;;;;;12.70;101014.00;;;;5077426;28;20198;-78
2021/03/27 01:23:46;;;;;;;2.65;1.17;;;;;12.80;101016.00;;;;5069381;28;20749;-78
2021/03/27 01:26:19;;;;;;;2.75;1.05;;;;;12.80;101030.00;;;;5075423;28;20271;-78
2021/03/27 01:28:54;;;;;;;4.18;1.48;;;;;12.80;101049.00;;;;5087661;28;20205;-78
2021/03/27 01:31:39;;;;;;;2.13;1.45;;;;;12.70;101117.00;;;;5076762;28;20206;-77
2021/03/27 01:34:15;;;;;;;0.88;0.75;;;;;12.60;101086.00;;;;5080236;28;20196;-77
2021/03/27 01:36:48;;;;;;;0.30;0.20;;;;;12.30;101086.00;;;;5101850;28;20201;-78
2021/03/27 01:39:17;;;;;;;0.32;0.13;;;;;12.10;101070.00;;;;5095522;28;20563;-78
2021/03/27 01:42:05;;;;;;;1.08;0.25;;;;;11.80;101064.00;;;;5091661;28;20991;-78
2021/03/27 01:44:52;;;;;;;0.30;0.10;;;;;11.70;101063.00;;;;5070965;28;20210;-78
2021/03/27 01:47:29;;;;;;;0.75;0.15;;;;;11.60;101068.00;;;;5080488;28;20210;-78
2021/03/27 01:50:31;;;;;;;0.28;0.10;;;;;11.50;101073.00;;;;5088019;28;20225;-78
2021/03/27 01:53:22;;;;;;;0.38;0.13;;;;;11.40;101067.00;;;;5078971;28;20234;-77
2021/03/27 01:55:57;;;;;;;0.38;0.15;;;;;11.40;101071.00;;;;5080243;28;20202;-78
2021/03/27 01:58:29;;;;;;;0.25;0.10;;;;;11.30;101073.00;;;;5071305;28;20194;-78
2021/03/27 02:01:02;;;;;;;2.92;0.38;;;;;11.30;101073.00;;;;5075303;28;20209;-77
2021/03/27 02:03:35;;;;;;;0.40;0.22;;;;;11.20;101082.00;;;;5087810;28;20194;-78
2021/03/27 02:06:09;;;;;;;2.50;0.30;;;;;11.10;101076.00;;;;5089135;28;20210;-78
2021/03/27 02:08:47;;;;;;;1.30;0.47;;;;;11.00;101075.00;;;;5081631;28;20674;-78
2021/03/27 02:11:22;;;;;;;1.92;0.32;;;;;11.00;101070.00;;;;5076971;28;20190;-78
2021/03/27 02:13:53;;;;;;;1.40;0.60;;;;;11.00;101078.00;;;;5088117;28;20205;-77
2021/03/27 02:16:32;;;;;;;3.45;0.60;;;;;10.90;101073.00;;;;5086871;28;20202;-78
2021/03/27 02:19:31;;;;;;;1.48;0.52;;;;;10.80;101074.00;;;;5088022;28;20209;-77
2021/03/27 02:22:07;;;;;;;1.98;0.75;;;;;10.80;101075.00;;;;5082026;28;21099;-77
2021/03/27 02:24:49;;;;;;;2.42;0.90;;;;;10.80;101086.00;;;;5071944;28;20193;-77
2021/03/27 02:27:21;;;;;;;3.53;1.00;;;;;10.80;101078.00;;;;5078520;28;20222;-77
2021/03/27 02:30:14;;;;;;;1.98;1.08;;;;;10.70;101076.00;;;;5082909;28;20194;-77
2021/03/27 02:32:49;;;;;;;1.75;0.95;;;;;10.70;101076.00;;;;5086962;28;20191;-78
2021/03/27 02:35:24;;;;;;;3.42;0.90;;;;;10.70;101080.00;;;;5085904;28;20280;-77
2021/03/27 02:38:06;;;;;;;2.20;1.60;;;;;10.60;101085.00;;;;5087069;28;20194;-78
2021/03/27 02:40:36;;;;;;;2.65;1.13;;;;;10.70;101083.00;;;;5082639;28;20426;-77
2021/03/27 02:43:07;;;;;;;2.47;1.55;;;;;10.70;101080.00;;;;5070997;28;20198;-77
2021/03/27 02:45:44;;;;;;;2.10;1.20;;;;;10.60;101079.00;;;;5082038;28;20202;-77
2021/03/27 02:48:20;;;;;;;2.05;1.33;;;;;10.60;101090.00;;;;5089719;28;20194;-77
2021/03/27 02:51:04;;;;;;;3.33;1.67;;;;;10.60;101095.00;;;;5092369;28;20284;-78
2021/03/27 02:53:42;;;;;;;4.10;1.77;;;;;10.60;101093.00;;;;5089795;28;20205;-77
2021/03/27 02:56:23;;;;;;;2.08;1.65;;;;;10.60;101096.00;;;;5092021;28;20785;-77
2021/03/27 02:59:12;;;;;;;2.85;1.50;;;;;10.50;101100.00;;;;5072065;28;20225;-77
2021/03/27 03:01:45;;;;;;;3.40;1.50;;;;;10.60;101089.00;;;;5089417;28;20206;-77
2021/03/27 03:04:16;;;;;;;3.15;1.80;;;;;10.60;101093.00;;;;5091698;28;20206;-77
2021/03/27 03:06:50;;;;;;;2.75;1.70;;;;;10.60;101095.00;;;;5087071;28;20215;-77
2021/03/27 03:09:22;;;;;;;3.65;1.70;;;;;10.60;101110.00;;;;5077477;28;20290;-77
2021/03/27 03:11:59;;;;;;;4.78;1.70;;;;;10.60;101099.00;;;;5090365;28;20190;-77
2021/03/27 03:14:45;;;;;;;3.72;1.75;;;;;10.70;101101.00;;;;5080439;28;20575;-77
2021/03/27 03:17:22;;;;;;;3.75;1.50;;;;;10.70;101107.00;;;;5075622;28;20186;-78
2021/03/27 03:19:54;;;;;;;5.88;2.00;;;;;10.80;101109.00;;;;5073828;28;20210;-78
2021/03/27 03:22:26;;;;;;;3.65;1.60;;;;;10.80;101102.00;;;;5076576;28;20210;-77
2021/03/27 03:24:58;;;;;;;5.60;1.83;;;;;10.80;101102.00;;;;5090697;28;20681;-77
2021/03/27 03:27:47;;;;;;;4.53;2.17;;;;;10.80;101100.00;;;;5091565;28;20225;-77
2021/03/27 03:30:31;;;;;;;5.93;2.00;;;;;10.80;101105.00;;;;5092132;28;20201;-77
2021/03/27 03:33:18;;;;;;;2.85;1.48;;;;;10.80;101108.00;;;;5090071;28;20543;-78
2021/03/27 03:35:49;;;;;;;4.82;2.40;;;;;10.90;101100.00;;;;5090976;28;20239;-77
2021/03/27 03:38:38;;;;;;;3.40;2.03;;;;;10.90;101101.00;;;;5074757;28;20206;-77
2021/03/27 03:41:12;;;;;;;2.92;1.90;;;;;10.90;101114.00;;;;5084270;28;20252;-77
2021/03/27 03:43:50;;;;;;;2.90;1.38;;;;;10.90;101121.00;;;;5090711;28;20627;-78
2021/03/27 03:46:31;;;;;;;7.30;1.65;;;;;10.90;101127.00;;;;5089798;28;20217;-77
2021/03/27 03:49:32;;;;;;;3.70;1.58;;;;;10.90;101125.00;;;;5070618;28;20424;-78
2021/03/27 03:52:18;;;;;;;3.35;1.40;;;;;10.90;101132.00;;;;5070636;28;21016;-77
2021/03/27 03:55:01;;;;;;;4.22;1.60;;;;;10.90;101132.00;;;;5071114;28;20623;-77
2021/03/27 03:57:48;;;;;;;7.28;1.50;;;;;10.90;101128.00;;;;5080425;28;20214;-78
2021/03/27 04:00:19;;;;;;;3.65;1.33;;;;;11.00;101141.00;;;;5090924;28;20582;-78
2021/03/27 04:02:58;;;;;;;7.78;1.80;;;;;11.00;101137.00;;;;5089557;28;20186;-78
2021/03/27 04:05:33;;;;;;;4.00;1.05;;;;;11.00;101140.00;;;;5074877;28;20267;-77
2021/03/27 04:08:06;;;;;;;6.22;1.63;;;;;11.10;101142.00;;;;5072839;28;20218;-77
2021/03/27 04:10:34;;;;;;;6.75;1.20;;;;;11.10;101133.00;;;;5069574;28;20639;-77
2021/03/27 04:13:06;;;;;;;4.00;0.90;;;;;11.20;101142.00;;;;5070628;28;20195;-78
2021/03/27 04:15:38;;;;;;;3.42;0.90;;;;;11.20;101140.00;;;;5088880;28;20374;-78
2021/03/27 04:18:11;;;;;;;3.35;1.00;;;;;11.30;101150.00;;;;5086996;28;20202;-77
2021/03/27 04:20:50;;;;;;;2.55;1.23;;;;;11.30;101146.00;;;;5089685;28;20262;-78
2021/03/27 04:23:25;;;;;;;5.40;1.17;;;;;11.30;101145.00;;;;5073747;28;20289;-77
2021/03/27 04:26:07;;;;;;;7.72;1.65;;;;;11.30;101142.00;;;;5075091;28;20619;-77
2021/03/27 04:28:53;;;;;;;7.03;1.13;;;;;11.30;101140.00;;;;5087680;28;20198;-77
2021/03/27 04:31:25;;;;;;;3.28;0.65;;;;;11.40;101147.00;;;;5088418;28;20201;-77
2021/03/27 04:34:02;;;;;;;4.20;1.10;;;;;11.40;101151.00;;;;5077796;28;20202;-78
2021/03/27 04:36:34;;;;;;;5.40;1.52;;;;;11.40;101153.00;;;;5088492;28;20201;-77
2021/03/27 04:39:05;;;;;;;3.90;0.90;;;;;11.50;101158.00;;;;5089163;28;20718;-77
2021/03/27 04:41:41;;;;;;;3.53;0.85;;;;;11.50;101162.00;;;;5077835;28;20213;-77
2021/03/27 04:44:18;;;;;;;2.50;0.85;;;;;11.50;101166.00;;;;5076372;28;20198;-77
2021/03/27 04:46:51;;;;;;;3.25;1.05;;;;;11.50;101167.00;;;;5072132;28;20218;-77
2021/03/27 04:49:26;;;;;;;4.53;1.38;;;;;11.50;101173.00;;;;5089735;28;20226;-77
2021/03/27 04:52:03;;;;;;;2.25;0.93;;;;;11.60;101174.00;;;;5088706;28;20197;-78
2021/03/27 04:54:52;;;;;;;4.50;0.93;;;;;11.60;101184.00;;;;5089994;28;20198;-78
2021/03/27 04:57:25;;;;;;;3.38;1.10;;;;;11.60;101201.00;;;;5076886;28;20198;-77
2021/03/27 05:00:15;;;;;;;3.50;1.13;;;;;11.60;101204.00;;;;5082332;28;20198;-77
2021/03/27 05:02:47;;;;;;;4.18;0.95;;;;;11.60;101210.00;;;;5079229;28;20198;-77
2021/03/27 05:05:18;;;;;;;2.80;0.77;;;;;11.60;101216.00;;;;5089564;28;20698;-78
2021/03/27 05:07:57;;;;;;;4.00;0.57;;;;;11.60;101220.00;;;;5088444;28;20481;-77
2021/03/27 05:10:33;;;;;;;3.50;0.90;;;;;11.60;101221.00;;;;5087840;28;20683;-77
2021/03/27 05:13:15;;;;;;;5.18;1.48;;;;;11.60;101217.00;;;;5081174;28;20192;-78
2021/03/27 05:15:48;;;;;;;4.13;0.75;;;;;11.60;101216.00;;;;5083212;28;20315;-78
2021/03/27 05:18:36;;;;;;;4.78;0.80;;;;;11.50;101223.00;;;;5081296;28;20209;-78
2021/03/27 05:21:09;;;;;;;2.45;0.55;;;;;11.60;101221.00;;;;5089228;28;20194;-78
2021/03/27 05:23:48;;;;;;;3.70;0.80;;;;;11.60;101222.00;;;;5078020;28;20217;-77
2021/03/27 05:26:24;;;;;;;1.88;0.70;;;;;11.60;101234.00;;;;5087113;28;20259;-77
2021/03/27 05:29:33;;;;;;;5.00;0.55;;;;;11.50;101240.00;;;;5089236;28;20217;-77
2021/03/27 05:32:12;;;;;;;5.35;1.15;;;;;11.50;101238.00;;;;5022636;28;20231;-78
2021/03/27 05:34:43;;;;;;;4.78;0.88;;;;;11.60;101246.00;;;;5021525;28;20204;-78
2021/03/27 05:37:32;;;;;;;3.78;0.60;;;;;11.50;101255.00;;;;5055664;28;20199;-78
2021/03/27 05:40:36;;;;;;;4.32;0.85;;;;;11.50;101257.00;;;;5077464;28;20536;-77
2021/03/27 05:43:32;;;;;;;2.97;1.08;;;;;11.50;101266.00;;;;5080990;28;20621;-77
2021/03/27 05:46:45;;;;;;;4.20;0.77;;;;;11.50;101279.00;;;;5077216;28;20207;-78
2021/03/27 05:49:43;;;;;;;3.22;0.75;;;;;11.40;101257.00;;;;5073374;28;20218;-77
2021/03/27 05:52:23;;;;;;;1.20;0.45;;;;;11.40;101281.00;;;;5082690;28;20199;-78
2021/03/27 05:55:17;;;;;;;0.75;0.32;;;;;11.40;101287.00;;;;5088831;28;20186;-78
2021/03/27 05:58:18;;;;;;;1.80;0.43;;;;;11.30;101293.00;;;;5085687;28;20450;-78
2021/03/27 06:00:55;;;;;;;2.05;0.63;;;;;11.40;101296.00;;;;5082200;28;20204;-78
2021/03/27 06:03:44;;;;;;;3.53;0.40;;;;;11.40;101296.00;;;;5077997;28;20194;-78
2021/03/27 06:06:40;;;;;;;2.45;0.40;;;;;11.30;101313.00;;;;5042402;28;20195;-77
2021/03/27 06:09:51;;;;;;;2.47;0.50;;;;;11.30;101316.00;;;;5074095;28;20567;-77
2021/03/27 06:12:38;;;;;;;2.45;0.40;;;;;11.20;101326.00;;;;5015957;28;20205;-78
2021/03/27 06:15:37;;;;;;;1.80;0.30;;;;;11.20;101333.00;;;;5072459;28;20660;-79
2021/03/27 06:18:44;;;;;;;1.55;0.50;;;;;11.20;101337.00;;;;5093977;28;20194;-79
2021/03/27 06:21:21;;;;;;;0.30;0.10;;;;;11.20;101340.00;;;;5069615;28;20194;-78
2021/03/27 06:24:16;;;;;;;3.28;0.38;;;;;11.20;101348.00;;;;5083036;28;20197;-79
2021/03/27 06:27:17;;;;;;;1.15;0.40;;;;;11.20;101348.00;;;;5084907;28;20222;-78
2021/03/27 06:30:26;;;;;;;3.33;0.60;;;;;11.10;101356.00;;;;5086361;28;20201;-78
2021/03/27 06:33:19;;;;;;;1.15;0.32;;;;;11.10;101363.00;;;;5089079;28;20810;-78
2021/03/27 06:36:02;;;;;;;3.85;0.45;;;;;11.10;101358.00;;;;5095444;28;20204;-77
2021/03/27 06:39:08;;;;;;;1.17;0.45;;;;;11.10;101348.00;;;;5089015;28;20194;-79
2021/03/27 06:41:49;;;;;;;2.53;0.40;;;;;11.10;101358.00;;;;5091322;28;20700;-80
2021/03/27 06:44:37;;;;;;;2.03;0.65;;;;;11.20;101380.00;;;;5084940;28;20191;-80
2021/03/27 06:47:40;;;;;;;3.17;0.47;;;;;11.20;101381.00;;;;5080976;28;20371;-80
2021/03/27 06:50:31;;;;;;;2.58;0.45;;;;;11.20;101391.00;;;;5082871;28;20230;-78
2021/03/27 06:53:28;;;;;;;4.30;0.57;;;;;11.30;101386.00;;;;5082063;28;21260;-77
2021/03/27 06:56:23;;;;;;;1.25;0.30;;;;;11.30;101382.00;;;;5083694;28;20190;-78
2021/03/27 06:59:16;;;;;;;2.20;0.65;;;;;11.40;101381.00;;;;5079452;28;20217;-78
2021/03/27 07:02:08;;;;;;;2.28;0.52;;;;;11.50;101395.00;;;;5080441;28;20221;-77
2021/03/27 07:05:25;;;;;;;2.55;0.55;;;;;11.40;101396.00;;;;5084691;28;20247;-77
2021/03/27 07:08:31;;;;;;;2.88;0.85;;;;;11.50;101395.00;;;;5090929;28;20225;-78
2021/03/27 07:11:28;;;;;;;2.15;0.50;;;;;11.50;101405.00;;;;5092300;28;20197;-78
2021/03/27 07:14:32;;;;;;;2.78;0.43;;;;;11.50;101406.00;;;;5089095;28;20199;-77
2021/03/27 07:17:14;;;;;;;2.75;0.65;;;;;11.60;101418.00;;;;5086972;28;20620;-77
2021/03/27 07:20:22;;;;;;;2.70;0.80;;;;;11.60;101423.00;;;;5094699;28;20221;-78
2021/03/27 07:23:34;;;;;;;0.85;0.30;;;;;11.70;101425.00;;;;5059798;28;20490;-78
2021/03/27 07:26:30;;;;;;;2.45;0.70;;;;;11.70;101427.00;;;;5085970;28;20294;-78
2021/03/27 07:29:31;;;;;;;3.28;0.80;;;;;11.80;101437.00;;;;5091738;28;20205;-78
2021/03/27 07:32:20;;;;;;;3.78;0.70;;;;;11.80;101443.00;;;;5059012;28;20205;-77
2021/03/27 07:35:22;;;;;;;3.17;0.75;;;;;11.90;101443.00;;;;5090546;28;20714;-76
2021/03/27 07:38:18;;;;;;;2.22;0.38;;;;;11.90;101449.00;;;;5082962;28;20706;-77
2021/03/27 07:40:59;;;;;;;4.70;0.40;;;;;12.00;101460.00;;;;5083317;28;20709;-77
2021/03/27 07:44:05;;;;;;;5.32;1.00;;;;;12.00;101458.00;;;;5078242;28;20206;-78
2021/03/27 07:47:15;;;;;;;6.93;0.82;;;;;12.20;101467.00;;;;5084123;28;20201;-77
2021/03/27 07:50:07;;;;;;;2.58;0.60;;;;;12.30;101470.00;;;;5076736;28;20230;-77
2021/03/27 07:52:45;;;;;;;2.47;0.85;;;;;12.40;101475.00;;;;5079706;28;20199;-78
2021/03/27 07:55:58;;;;;;;3.10;0.80;;;;;12.50;101478.00;;;;5094031;28;20259;-78
2021/03/27 07:58:56;;;;;;;2.30;0.75;;;;;12.50;101490.00;;;;5067613;28;20208;-78
2021/03/27 08:01:45;;;;;;;4.97;0.73;;;;;12.60;101491.00;;;;5091777;28;21041;-79
2021/03/27 08:05:01;;;;;;;2.20;0.57;;;;;12.70;101489.00;;;;5083927;28;20601;-77
2021/03/27 08:07:55;;;;;;;4.13;0.75;;;;;12.70;101488.00;;;;5078822;28;20221;-78
2021/03/27 08:10:33;;;;;;;5.85;0.82;;;;;12.90;101493.00;;;;5081642;28;20195;-75
2021/03/27 08:13:27;;;;;;;5.85;1.02;;;;;12.90;101505.00;;;;5076750;28;20285;-76
2021/03/27 08:16:36;;;;;;;7.00;0.60;;;;;13.10;101490.00;;;;5075371;28;20228;-76
2021/03/27 08:19:34;;;;;;;1.02;0.73;;;;;13.20;101487.00;;;;5069161;28;20224;-76
2021/03/27 08:22:47;;;;;;;3.20;0.82;;;;;13.30;101504.00;;;;5082241;28;20243;-76
2021/03/27 08:25:20;;;;;;;8.52;1.75;;;;;13.40;101505.00;;;;5017232;28;20212;-76
2021/03/27 08:28:04;;;;;;;2.38;0.90;;;;;13.40;101521.00;;;;5072023;28;20233;-76
2021/03/27 08:31:10;;;;;;;6.60;1.38;;;;;13.40;101526.00;;;;5077106;28;20195;-76
2021/03/27 08:34:18;;;;;;;10.02;1.40;;;;;13.30;101539.00;;;;5081935;28;20198;-76
2021/03/27 08:37:26;;;;;;;3.97;1.15;;;;;13.30;101566.00;;;;5082980;28;20217;-74
2021/03/27 08:40:25;;;;;;;5.70;0.77;;;;;13.30;101564.00;;;;5077708;28;20215;-75
2021/03/27 08:43:23;;;;;;;5.45;0.95;;;;;13.30;101567.00;;;;5077532;28;20247;-75
2021/03/27 08:46:31;;;;;;;3.95;1.27;;;;;13.40;101560.00;;;;5076453;28;20205;-76
2021/03/27 08:49:33;;;;;;;2.08;0.47;;;;;13.50;101562.00;;;;5075492;28;20222;-75
2021/03/27 08:52:18;;;;;;;2.90;0.63;;;;;13.60;101563.00;;;;5083575;28;20202;-76
2021/03/27 08:55:07;;;;;;;2.22;0.60;;;;;13.70;101576.00;;;;5081893;28;20202;-77
2021/03/27 08:57:57;;;;;;;4.07;1.08;;;;;13.80;101585.00;;;;5086555;28;20198;-76
2021/03/27 09:01:07;;;;;;;3.65;0.75;;;;;13.80;101592.00;;;;5081770;28;20210;-76
2021/03/27 09:04:22;;;;;;;4.18;0.50;;;;;13.90;101594.00;;;;5017183;28;20296;-76
2021/03/27 09:07:34;;;;;;;3.22;0.80;;;;;14.00;101609.00;;;;5017830;28;20239;-77
2021/03/27 09:10:30;;;;;;;3.10;1.25;;;;;14.10;101620.00;;;;5027461;28;20207;-76
2021/03/27 09:13:38;;;;;;;7.65;1.15;;;;;14.10;101619.00;;;;5086310;28;20214;-77
2021/03/27 09:16:40;;;;;;;4.78;1.05;;;;;14.10;101617.00;;;;5072760;28;20237;-75
2021/03/27 09:19:41;;;;;;;5.35;0.70;;;;;14.00;101642.00;;;;5090880;28;20202;-77
2021/03/27 09:22:40;;;;;;;3.05;0.80;;;;;14.00;101645.00;;;;5089296;28;20297;-76
2021/03/27 09:25:32;;;;;;;5.35;0.90;;;;;14.00;101644.00;;;;5087650;28;20191;-77
2021/03/27 09:28:28;;;;;;;4.75;0.70;;;;;14.00;101655.00;;;;5088455;28;20225;-77
2021/03/27 09:31:07;;;;;;;4.90;0.75;;;;;14.10;101643.00;;;;5089013;28;20252;-77
2021/03/27 09:33:39;;;;;;;4.35;0.77;;;;;14.20;101649.00;;;;5086566;28;20529;-76
2021/03/27 09:36:19;;;;;;;4.70;1.13;;;;;14.20;101646.00;;;;5088846;28;20209;-76
2021/03/27 09:38:57;;;;;;;5.45;0.85;;;;;14.30;101676.00;;;;5090851;28;20633;-76
2021/03/27 09:42:05;;;;;;;3.47;0.98;;;;;14.30;101695.00;;;;5086073;28;20210;-76
2021/03/27 09:45:08;;;;;;;2.75;0.93;;;;;14.40;101685.00;;;;5083709;28;20746;-76
2021/03/27 09:48:21;;;;;;;3.88;0.50;;;;;14.40;101682.00;;;;5087094;28;20291;-75
2021/03/27 09:50:53;;;;;;;2.60;0.88;;;;;14.60;101695.00;;;;5068457;28;20195;-76
2021/03/27 09:53:36;;;;;;;4.25;0.95;;;;;14.60;101713.00;;;;5083622;28;20202;-75
2021/03/27 09:56:06;;;;;;;3.95;0.80;;;;;14.70;101708.00;;;;5083210;28;20584;-75
2021/03/27 09:58:46;;;;;;;4.30;0.80;;;;;14.70;101720.00;;;;5085406;28;20202;-75
2021/03/27 10:01:27;;;;;;;3.72;0.98;;;;;14.70;101718.00;;;;5085585;28;20598;-75
2021/03/27 10:04:19;;;;;;;6.43;0.80;;;;;14.70;101735.00;;;;5085598;28;20201;-74
2021/03/27 10:07:12;;;;;;;3.42;0.68;;;;;14.60;101737.00;;;;5077685;28;20194;-74
2021/03/27 10:10:18;;;;;;;5.88;0.60;;;;;14.60;101752.00;;;;5080708;28;20198;-75
2021/03/27 10:12:58;;;;;;;2.88;0.30;;;;;14.60;101748.00;;;;5066486;28;20722;-75
2021/03/27 10:15:33;;;;;;;2.42;0.70;;;;;14.70;101763.00;;;;5081317;28;20201;-77
2021/03/27 10:18:06;;;;;;;6.78;1.00;;;;;14.60;101761.00;;;;5086949;28;20205;-74
2021/03/27 10:20:48;;;;;;;2.17;0.55;;;;;14.60;101771.00;;;;5080292;28;20210;-74
2021/03/27 10:23:23;;;;;;;4.43;0.65;;;;;14.50;101780.00;;;;5083507;28;20194;-75
2021/03/27 10:26:22;;;;;;;7.13;1.10;;;;;14.40;101767.00;;;;5086720;28;20198;-75
2021/03/27 10:28:55;;;;;;;3.05;0.57;;;;;14.40;101779.00;;;;5063461;28;20246;-74
2021/03/27 10:31:28;;;;;;;2.55;0.50;;;;;14.30;101776.00;;;;5087073;28;20210;-79
2021/03/27 10:34:19;;;;;;;3.75;0.75;;;;;14.20;101792.00;;;;5081601;28;20237;-79
2021/03/27 10:36:53;;;;;;;3.83;1.05;;;;;14.20;101790.00;;;;5065007;28;20198;-77
2021/03/27 10:39:57;;;;;;;3.53;0.70;;;;;14.10;101796.00;;;;5080357;28;20190;-76
2021/03/27 10:42:44;;;;;;;3.42;0.90;;;;;14.30;101790.00;;;;5087807;28;20608;-77
2021/03/27 10:45:34;;;;;;;10.90;1.10;;;;;14.30;101797.00;;;;5088380;28;20205;-76
2021/03/27 10:48:39;;;;;;;3.15;0.65;;;;;14.40;101802.00;;;;5087621;28;20229;-76
2021/03/27 10:51:19;;;;;;;2.72;0.90;;;;;14.40;101813.00;;;;5060280;28;20191;-76
2021/03/27 10:53:59;;;;;;;4.13;0.70;;;;;14.50;101806.00;;;;5068189;28;20567;-76
2021/03/27 10:56:44;;;;;;;2.10;0.77;;;;;14.60;101800.00;;;;5084890;28;20197;-76
2021/03/27 10:59:30;;;;;;;5.68;0.50;;;;;14.70;101815.00;;;;5087184;28;20311;-77
2021/03/27 11:02:37;;;;;;;3.08;0.93;;;;;14.80;101818.00;;;;5086276;28;20194;-74
2021/03/27 11:05:29;;;;;;;3.00;1.27;;;;;14.80;101811.00;;;;5060032;28;20205;-74
2021/03/27 11:08:41;;;;;;;8.75;0.93;;;;;14.70;101830.00;;;;5083488;28;20256;-75
2021/03/27 11:11:18;;;;;;;1.80;0.77;;;;;14.70;101849.00;;;;5024262;28;20202;-74
2021/03/27 11:13:58;;;;;;;3.10;0.82;;;;;14.60;101854.00;;;;5069791;28;20202;-75
2021/03/27 11:16:46;;;;;;;3.60;0.88;;;;;14.40;101863.00;;;;5085146;28;20190;-76
2021/03/27 11:19:32;;;;;;;3.60;0.93;;;;;14.30;101860.00;;;;5085177;28;20210;-75
2021/03/27 11:22:26;;;;;;;5.40;0.90;;;;;14.20;101870.00;;;;5087100;28;20202;-74
2021/03/27 11:25:30;;;;;;;7.20;0.80;;;;;14.10;101872.00;;;;5075653;28;20202;-74
2021/03/27 11:28:06;;;;;;;7.30;1.02;;;;;14.10;101879.00;;;;5077000;28;20213;-74
2021/03/27 11:30:39;;;;;;;3.38;0.50;;;;;14.00;101880.00;;;;5081391;28;20210;-75
2021/03/27 11:33:17;;;;;;;4.13;1.00;;;;;14.00;101889.00;;;;5089726;28;20202;-74
2021/03/27 11:35:52;;;;;;;3.15;0.95;;;;;14.00;101885.00;;;;5088417;28;20195;-74
2021/03/27 11:38:29;;;;;;;3.05;0.60;;;;;14.00;101897.00;;;;5091351;28;20201;-75
2021/03/27 11:41:03;;;;;;;4.47;1.27;;;;;14.10;101886.00;;;;5084133;28;20217;-76
2021/03/27 11:43:58;;;;;;;3.25;0.82;;;;;14.10;101895.00;;;;5090726;28;20197;-75
2021/03/27 11:46:29;;;;;;;2.63;0.43;;;;;14.10;101913.00;;;;5079519;28;20191;-75
2021/03/27 11:49:08;;;;;;;3.92;0.80;;;;;14.10;101907.00;;;;5076325;28;20757;-74
2021/03/27 11:51:41;;;;;;;2.95;0.93;;;;;14.10;101910.00;;;;5089135;28;20198;-75
2021/03/27 11:54:22;;;;;;;3.90;0.60;;;;;14.10;101922.00;;;;5087358;28;20239;-76
2021/03/27 11:57:15;;;;;;;5.82;0.93;;;;;14.10;101942.00;;;;5078262;28;20195;-76
2021/03/27 12:02:55;;;;;;;7.43;1.02;;;;;14.00;101942.00;;;;5085274;28;20213;-76
2021/03/27 12:05:29;;;;;;;3.40;0.50;;;;;14.10;101939.00;;;;5083741;28;20859;-77
2021/03/27 12:08:12;;;;;;;3.90;0.88;;;;;14.10;101948.00;;;;5079232;28;20211;-76
2021/03/27 12:10:51;;;;;;;4.22;0.70;;;;;14.20;101953.00;;;;5072059;28;20247;-76
2021/03/27 12:13:23;;;;;;;4.72;1.05;;;;;14.20;101963.00;;;;5076085;28;20195;-76
2021/03/27 12:16:02;;;;;;;3.63;0.82;;;;;14.30;101969.00;;;;5080571;28;20210;-76
2021/03/27 12:19:03;;;;;;;3.90;0.82;;;;;14.20;101959.00;;;;5082795;28;20199;-76
2021/03/27 12:21:32;;;;;;;3.40;0.73;;;;;14.30;101965.00;;;;5087592;28;20237;-76
2021/03/27 12:24:05;;;;;;;5.70;0.75;;;;;14.30;101979.00;;;;5076698;28;20210;-76
2021/03/27 12:26:44;;;;;;;4.82;0.65;;;;;14.40;101969.00;;;;5077847;28;20195;-76
2021/03/27 12:29:16;;;;;;;5.88;0.63;;;;;14.50;101982.00;;;;5083190;28;20203;-76
2021/03/27 12:32:24;;;;;;;2.97;0.95;;;;;14.50;101992.00;;;;5083052;28;20198;-76
2021/03/27 12:34:59;;;;;;;2.35;0.90;;;;;14.60;101989.00;;;;5044399;28;20199;-77
2021/03/27 12:37:31;;;;;;;4.07;1.13;;;;;14.60;101997.00;;;;5071595;28;20200;-77
2021/03/27 12:40:03;;;;;;;5.88;1.00;;;;;14.60;101991.00;;;;5083316;28;20539;-77
2021/03/27 12:42:37;;;;;;;3.53;1.45;;;;;14.60;101997.00;;;;5087731;28;20206;-76
2021/03/27 12:45:09;;;;;;;4.75;1.20;;;;;14.60;101998.00;;;;5079737;28;20644;-76
2021/03/27 12:47:54;;;;;;;6.88;1.10;;;;;14.70;101998.00;;;;5087670;28;20309;-78
2021/03/27 12:50:37;;;;;;;4.20;1.40;;;;;14.80;102005.00;;;;5085780;28;20222;-77
2021/03/27 12:53:41;;;;;;;4.50;1.85;;;;;14.90;102011.00;;;;5081712;28;20217;-75
2021/03/27 12:56:34;;;;;;;6.95;0.85;;;;;15.10;102007.00;;;;5090329;28;20197;-74
2021/03/27 12:59:11;;;;;;;3.25;0.75;;;;;15.30;102012.00;;;;5089180;28;20251;-75
2021/03/27 13:01:58;;;;;;;4.50;1.10;;;;;15.50;102041.00;;;;5081279;28;20193;-75
2021/03/27 13:05:05;;;;;;;5.40;1.10;;;;;15.60;102022.00;;;;5087858;28;20216;-76
2021/03/27 13:07:39;;;;;;;3.85;1.10;;;;;15.80;102028.00;;;;5047818;28;20723;-74
2021/03/27 13:10:36;;;;;;;4.43;0.82;;;;;15.80;102035.00;;;;5081065;28;20205;-75
2021/03/27 13:13:38;;;;;;;4.65;0.82;;;;;15.80;102036.00;;;;5085498;28;20657;-75
2021/03/27 13:16:13;;;;;;;5.32;1.00;;;;;15.90;102043.00;;;;5079552;28;20194;-76
2021/03/27 13:18:50;;;;;;;5.82;0.90;;;;;15.80;102035.00;;;;5085190;28;20202;-76
2021/03/27 13:21:29;;;;;;;2.97;1.02;;;;;15.80;102045.00;;;;5086074;28;20193;-76
2021/03/27 13:24:02;;;;;;;6.28;1.35;;;;;15.80;102045.00;;;;5086767;28;20194;-75
2021/03/27 13:26:30;;;;;;;5.43;0.90;;;;;15.80;102057.00;;;;5081246;28;20206;-74
2021/03/27 13:29:09;;;;;;;2.40;0.80;;;;;15.70;102053.00;;;;5086340;28;20251;-75
2021/03/27 13:31:42;;;;;;;2.95;0.77;;;;;15.70;102075.00;;;;5075769;28;20202;-76
2021/03/27 13:34:15;;;;;;;7.22;0.80;;;;;15.70;102075.00;;;;5081531;28;20236;-75